createdAt,value
2018-12-05T00:00:27.564Z,91.70
2018-12-05T00:02:56.940Z,91.50
2018-12-05T00:05:26.510Z,91.50
2018-12-05T00:07:56.948Z,91.50
2018-12-05T00:10:26.148Z,91.30
2018-12-05T00:12:55.606Z,91.20
2018-12-05T00:15:24.984Z,91.20
2018-12-05T00:17:54.681Z,91.20
2018-12-05T00:20:24.081Z,91.20
2018-12-05T00:22:53.456Z,91.20
2018-12-05T00:25:22.795Z,91.60
2018-12-05T00:27:52.258Z,91.20
2018-12-05T00:30:21.625Z,91.30
2018-12-05T00:32:50.970Z,91.20
2018-12-05T00:35:20.344Z,91.20
2018-12-05T00:37:49.807Z,91.20
2018-12-05T00:40:19.300Z,91.20
2018-12-05T00:42:48.620Z,91.20
2018-12-05T00:45:18.094Z,91.30
2018-12-05T00:47:47.465Z,91.20
2018-12-05T00:50:16.803Z,91.20
2018-12-05T00:52:46.229Z,91.10
2018-12-05T00:55:15.656Z,91.10
2018-12-05T00:57:45.026Z,91.10
2018-12-05T01:00:14.412Z,91.10
2018-12-05T01:02:43.765Z,91.10
2018-12-05T01:05:13.057Z,91.10
2018-12-05T01:07:42.467Z,91.00
2018-12-05T01:10:11.807Z,91.00
2018-12-05T01:12:41.198Z,91.00
2018-12-05T01:15:10.500Z,91.00
2018-12-05T01:17:40.010Z,91.30
2018-12-05T01:20:09.389Z,91.10
2018-12-05T01:22:38.733Z,91.00
2018-12-05T01:25:08.070Z,90.90
2018-12-05T01:27:37.399Z,90.90
2018-12-05T01:30:06.705Z,90.90
2018-12-05T01:32:36.092Z,90.90
2018-12-05T01:35:08.138Z,90.90
2018-12-05T01:37:37.493Z,90.90
2018-12-05T01:40:06.902Z,90.90
2018-12-05T01:42:36.263Z,90.90
2018-12-05T01:45:05.972Z,90.80
2018-12-05T01:47:35.245Z,90.90
2018-12-05T01:50:05.307Z,91.00
2018-12-05T01:52:34.647Z,91.00
2018-12-05T01:55:04.185Z,91.00
2018-12-05T01:57:33.561Z,91.00
2018-12-05T02:00:02.937Z,91.10
2018-12-05T02:02:33.784Z,91.20
2018-12-05T02:05:03.239Z,91.20
2018-12-05T02:07:32.530Z,91.20
2018-12-05T02:10:01.761Z,91.20
2018-12-05T02:12:31.684Z,91.20
2018-12-05T02:15:01.021Z,91.20
2018-12-05T02:17:30.837Z,91.10
2018-12-05T02:20:01.140Z,91.10
2018-12-05T02:22:30.399Z,91.10
2018-12-05T02:24:59.611Z,91.20
2018-12-05T02:27:28.867Z,91.20
2018-12-05T02:29:58.143Z,91.30
2018-12-05T02:32:27.388Z,91.60
2018-12-05T02:34:56.697Z,91.30
2018-12-05T02:37:25.954Z,91.30
2018-12-05T02:39:55.194Z,91.30
2018-12-05T02:42:24.405Z,91.30
2018-12-05T02:44:53.683Z,91.30
2018-12-05T02:47:22.932Z,91.30
2018-12-05T02:49:52.288Z,91.40
2018-12-05T02:52:21.654Z,91.30
2018-12-05T02:54:50.837Z,91.30
2018-12-05T02:57:20.169Z,91.30
2018-12-05T02:59:49.488Z,91.30
2018-12-05T03:02:18.778Z,91.30
2018-12-05T03:04:48.085Z,91.40
2018-12-05T03:07:17.578Z,91.40
2018-12-05T03:09:47.893Z,91.30
2018-12-05T03:12:17.250Z,91.40
2018-12-05T03:14:46.583Z,91.30
2018-12-05T03:17:15.932Z,91.40
2018-12-05T03:19:46.840Z,91.30
2018-12-05T03:22:16.175Z,91.30
2018-12-05T03:24:45.395Z,91.20
2018-12-05T03:27:14.647Z,91.20
2018-12-05T03:29:44.101Z,91.50
2018-12-05T03:32:15.377Z,91.10
2018-12-05T03:34:44.779Z,91.10
2018-12-05T03:37:14.547Z,91.10
2018-12-05T03:39:43.865Z,91.10
2018-12-05T03:42:13.319Z,91.10
2018-12-05T03:44:42.689Z,91.10
2018-12-05T03:47:11.983Z,91.00
2018-12-05T03:49:45.239Z,91.10
2018-12-05T03:52:14.507Z,91.10
2018-12-05T03:54:43.795Z,91.10
2018-12-05T03:57:13.385Z,91.10
2018-12-05T03:59:42.670Z,91.20
2018-12-05T04:02:12.010Z,91.20
2018-12-05T04:04:41.328Z,91.20
2018-12-05T04:07:10.594Z,91.10
2018-12-05T04:09:39.908Z,91.20
2018-12-05T04:12:09.148Z,91.10
2018-12-05T04:14:38.420Z,91.10
2018-12-05T04:17:07.747Z,91.20
2018-12-05T04:19:36.995Z,91.30
2018-12-05T04:22:06.288Z,91.30
2018-12-05T04:24:35.603Z,91.40
2018-12-05T04:27:04.930Z,91.30
2018-12-05T04:29:34.427Z,91.30
2018-12-05T04:32:03.847Z,91.30
2018-12-05T04:34:33.190Z,91.30
2018-12-05T04:37:02.479Z,91.30
2018-12-05T04:39:31.929Z,91.40
2018-12-05T04:42:01.334Z,91.40
2018-12-05T04:44:30.770Z,91.50
2018-12-05T04:47:00.048Z,91.40
2018-12-05T04:49:29.280Z,91.50
2018-12-05T04:51:59.127Z,91.50
2018-12-05T04:54:28.641Z,91.50
2018-12-05T04:56:58.387Z,91.80
2018-12-05T04:59:27.740Z,91.40
2018-12-05T05:01:57.065Z,91.50
2018-12-05T05:04:26.621Z,91.50
2018-12-05T05:06:55.947Z,91.50
2018-12-05T05:09:25.289Z,91.50
2018-12-05T05:11:54.612Z,91.50
2018-12-05T05:14:25.669Z,91.70
2018-12-05T05:16:55.004Z,91.70
2018-12-05T05:19:24.297Z,91.70
2018-12-05T05:21:53.639Z,91.70
2018-12-05T05:24:22.974Z,91.80
2018-12-05T05:26:52.406Z,91.80
2018-12-05T05:29:21.758Z,91.80
2018-12-05T05:31:51.207Z,91.80
2018-12-05T05:34:20.555Z,91.80
2018-12-05T05:36:49.944Z,91.80
2018-12-05T05:39:19.457Z,91.80
2018-12-05T05:41:48.924Z,91.80
2018-12-05T05:44:18.289Z,91.80
2018-12-05T05:46:47.738Z,91.80
2018-12-05T05:49:17.041Z,91.80
2018-12-05T05:51:46.661Z,91.80
2018-12-05T05:54:19.200Z,91.80
2018-12-05T05:56:49.166Z,91.80
2018-12-05T05:59:18.633Z,91.90
2018-12-05T06:01:47.970Z,92.00
2018-12-05T06:04:17.456Z,92.00
2018-12-05T06:06:46.790Z,92.00
2018-12-05T06:09:16.079Z,92.00
2018-12-05T06:11:45.686Z,92.10
2018-12-05T06:14:14.958Z,92.10
2018-12-05T06:16:44.749Z,92.10
2018-12-05T06:19:13.977Z,92.10
2018-12-05T06:21:43.326Z,92.20
2018-12-05T06:24:12.862Z,92.10
2018-12-05T06:26:42.130Z,92.20
2018-12-05T06:29:11.426Z,92.10
2018-12-05T06:31:40.820Z,92.10
2018-12-05T06:34:10.249Z,92.10
2018-12-05T06:36:41.614Z,92.20
2018-12-05T06:39:10.915Z,92.20
2018-12-05T06:41:40.480Z,92.30
2018-12-05T06:44:09.932Z,92.30
2018-12-05T06:46:39.345Z,92.30
2018-12-05T06:49:08.738Z,92.30
2018-12-05T06:51:38.258Z,92.40
2018-12-05T06:54:07.624Z,92.50
2018-12-05T06:56:38.290Z,92.40
2018-12-05T06:59:07.775Z,92.50
2018-12-05T07:01:37.176Z,92.50
2018-12-05T07:04:06.553Z,92.40
2018-12-05T07:06:35.888Z,92.50
2018-12-05T07:09:08.565Z,92.40
2018-12-05T07:11:38.098Z,92.50
2018-12-05T07:14:07.413Z,92.60
2018-12-05T07:16:36.742Z,92.60
2018-12-05T07:19:06.163Z,92.70
2018-12-05T07:21:35.641Z,92.70
2018-12-05T07:24:04.966Z,92.70
2018-12-05T07:26:34.376Z,92.70
2018-12-05T07:29:04.805Z,92.60
2018-12-05T07:31:34.530Z,92.60
2018-12-05T07:34:03.978Z,92.60
2018-12-05T07:36:33.175Z,92.70
2018-12-05T07:39:02.946Z,92.70
2018-12-05T07:41:34.086Z,92.70
2018-12-05T07:44:03.644Z,92.70
2018-12-05T07:46:33.004Z,92.80
2018-12-05T07:49:02.422Z,92.80
2018-12-05T07:51:31.785Z,93.00
2018-12-05T07:54:01.197Z,92.70
2018-12-05T07:56:30.545Z,92.70
2018-12-05T07:58:59.994Z,92.60
2018-12-05T08:01:29.393Z,92.50
2018-12-05T08:03:58.843Z,92.80
2018-12-05T08:06:28.243Z,92.50
2018-12-05T08:08:57.625Z,92.50
2018-12-05T08:11:27.107Z,92.50
2018-12-05T08:13:56.471Z,92.30
2018-12-05T08:16:27.140Z,92.20
2018-12-05T08:18:56.528Z,92.00
2018-12-05T08:21:25.889Z,92.00
2018-12-05T08:23:55.210Z,91.80
2018-12-05T08:26:24.732Z,92.00
2018-12-05T08:28:54.153Z,91.80
2018-12-05T08:31:23.657Z,91.70
2018-12-05T08:33:53.104Z,91.70
2018-12-05T08:36:22.474Z,91.50
2018-12-05T08:38:51.785Z,91.50
2018-12-05T08:41:21.124Z,91.40
2018-12-05T08:43:50.545Z,91.40
2018-12-05T08:46:22.284Z,91.20
2018-12-05T08:48:52.179Z,91.00
2018-12-05T08:51:21.704Z,91.00
2018-12-05T08:53:51.370Z,90.50
2018-12-05T08:56:20.631Z,90.60
2018-12-05T08:58:49.951Z,90.40
2018-12-05T09:01:19.313Z,90.40
2018-12-05T09:03:48.697Z,90.40
2018-12-05T09:06:18.097Z,90.20
2018-12-05T09:08:48.130Z,90.00
2018-12-05T09:11:17.387Z,89.60
2018-12-05T09:13:47.683Z,89.40
2018-12-05T09:16:17.128Z,89.00
2018-12-05T09:18:46.486Z,89.20
2018-12-05T09:21:15.789Z,89.00
2018-12-05T09:23:45.154Z,88.40
2018-12-05T09:26:14.514Z,88.60
2018-12-05T09:28:43.889Z,89.00
2018-12-05T09:31:13.230Z,88.20
2018-12-05T09:33:42.549Z,88.40
2018-12-05T09:36:11.948Z,87.20
2018-12-05T09:38:41.207Z,87.30
2018-12-05T09:41:10.533Z,87.20
2018-12-05T09:43:39.952Z,86.70
2018-12-05T09:46:09.318Z,86.70
2018-12-05T09:48:39.796Z,85.50
2018-12-05T09:51:09.216Z,86.30
2018-12-05T09:53:38.666Z,86.50
2018-12-05T09:56:07.988Z,86.30
2018-12-05T09:58:37.395Z,86.40
2018-12-05T10:01:06.760Z,86.40
2018-12-05T10:03:36.025Z,86.60
2018-12-05T10:06:05.248Z,86.10
2018-12-05T10:08:34.601Z,85.40
2018-12-05T10:11:03.887Z,84.90
2018-12-05T10:13:34.379Z,85.10
2018-12-05T10:16:03.847Z,84.80
2018-12-05T10:18:33.128Z,84.60
2018-12-05T10:21:02.489Z,84.10
2018-12-05T10:23:31.776Z,84.00
2018-12-05T10:26:01.227Z,85.30
2018-12-05T10:28:30.615Z,84.50
2018-12-05T10:31:00.198Z,84.10
2018-12-05T10:33:30.167Z,83.30
2018-12-05T10:36:00.656Z,82.80
2018-12-05T10:38:30.001Z,83.20
2018-12-05T10:40:59.304Z,83.10
2018-12-05T10:43:28.693Z,83.50
2018-12-05T10:45:58.006Z,84.10
2018-12-05T10:48:27.284Z,83.20
2018-12-05T10:50:59.275Z,82.50
2018-12-05T10:53:28.779Z,82.10
2018-12-05T10:55:58.151Z,81.70
2018-12-05T10:58:27.469Z,79.90
2018-12-05T11:01:00.914Z,79.80
2018-12-05T11:03:34.395Z,78.10
2018-12-05T11:06:09.034Z,75.10
2018-12-05T11:08:42.474Z,68.30
2018-12-05T11:11:15.976Z,58.00
2018-12-05T11:13:49.542Z,52.90
2018-12-05T11:16:23.292Z,48.20
2018-12-05T11:18:56.794Z,44.30
2018-12-05T11:21:30.326Z,43.10
2018-12-05T11:24:03.841Z,43.50
2018-12-05T11:26:35.134Z,42.90
2018-12-05T11:29:06.080Z,39.10
2018-12-05T11:31:35.487Z,36.40
2018-12-05T11:34:05.310Z,36.10
2018-12-05T11:36:34.667Z,34.90
2018-12-05T11:39:06.911Z,33.60
2018-12-05T11:41:37.865Z,32.10
2018-12-05T11:44:07.256Z,31.40
2018-12-05T11:46:36.649Z,32.40
2018-12-05T11:49:06.044Z,33.10
2018-12-05T11:51:35.396Z,37.50
2018-12-05T11:54:04.776Z,36.50
2018-12-05T11:56:34.127Z,39.60
2018-12-05T11:59:03.520Z,42.80
2018-12-05T12:01:32.891Z,45.00
2018-12-05T12:04:02.291Z,46.90
2018-12-05T12:06:31.650Z,49.70
2018-12-05T12:09:01.016Z,50.80
2018-12-05T12:11:32.226Z,53.80
2018-12-05T12:14:01.728Z,54.80
2018-12-05T12:16:30.972Z,56.30
2018-12-05T12:19:00.515Z,57.50
2018-12-05T12:21:29.841Z,57.80
2018-12-05T12:23:59.211Z,58.30
2018-12-05T12:26:33.231Z,58.40
2018-12-05T12:28:59.878Z,58.60
2018-12-05T12:31:29.287Z,58.90
2018-12-05T12:33:58.546Z,59.20
2018-12-05T12:36:27.930Z,59.10
2018-12-05T12:38:57.394Z,61.00
2018-12-05T12:41:26.693Z,61.90
2018-12-05T12:43:56.011Z,62.30
2018-12-05T12:46:25.351Z,62.60
2018-12-05T12:48:54.769Z,62.90
2018-12-05T12:51:24.204Z,63.50
2018-12-05T12:53:53.563Z,63.70
2018-12-05T12:56:22.951Z,64.30
2018-12-05T12:58:52.275Z,65.00
2018-12-05T13:01:21.651Z,65.30
2018-12-05T13:03:50.928Z,64.90
2018-12-05T13:06:20.368Z,66.30
2018-12-05T13:08:49.674Z,67.50
2018-12-05T13:11:19.050Z,68.50
2018-12-05T13:13:49.650Z,69.10
2018-12-05T13:16:19.086Z,69.20
2018-12-05T13:18:48.389Z,69.50
2018-12-05T13:21:17.635Z,69.50
2018-12-05T13:23:46.973Z,70.10
2018-12-05T13:26:16.206Z,70.50
2018-12-05T13:28:46.126Z,70.90
2018-12-05T13:31:15.506Z,71.00
2018-12-05T13:33:44.879Z,71.30
2018-12-05T13:36:14.124Z,71.50
2018-12-05T13:38:43.385Z,71.60
2018-12-05T13:41:12.707Z,72.00
2018-12-05T13:43:42.175Z,72.30
2018-12-05T13:46:11.547Z,72.30
2018-12-05T13:48:40.903Z,72.90
2018-12-05T13:51:10.229Z,73.10
2018-12-05T13:53:39.689Z,73.60
2018-12-05T13:56:09.072Z,73.90
2018-12-05T13:58:38.577Z,74.20
2018-12-05T14:01:07.951Z,74.30
2018-12-05T14:03:37.223Z,74.50
2018-12-05T14:06:06.689Z,74.30
2018-12-05T14:08:35.987Z,74.40
2018-12-05T14:11:05.276Z,75.50
2018-12-05T14:13:34.668Z,74.70
2018-12-05T14:16:04.093Z,76.00
2018-12-05T14:18:33.450Z,75.60
2018-12-05T14:21:02.756Z,76.00
2018-12-05T14:23:32.177Z,76.50
2018-12-05T14:26:01.682Z,77.00
2018-12-05T14:28:31.016Z,77.10
2018-12-05T14:31:00.253Z,76.90
2018-12-05T14:33:29.657Z,76.80
2018-12-05T14:35:59.047Z,77.40
2018-12-05T14:38:28.475Z,78.00
2018-12-05T14:41:10.354Z,78.30
2018-12-05T14:43:41.641Z,78.70
2018-12-05T14:46:10.987Z,79.10
2018-12-05T14:48:40.289Z,79.80
2018-12-05T14:51:10.898Z,80.30
2018-12-05T14:53:40.281Z,80.90
2018-12-05T14:56:09.588Z,81.20
2018-12-05T14:58:38.939Z,81.60
2018-12-05T15:01:09.945Z,81.70
2018-12-05T15:03:39.276Z,82.00
2018-12-05T15:06:08.597Z,83.10
2018-12-05T15:08:38.148Z,83.00
2018-12-05T15:11:07.474Z,83.60
2018-12-05T15:13:36.811Z,83.90
2018-12-05T15:16:07.709Z,84.10
2018-12-05T15:18:37.022Z,84.70
2018-12-05T15:21:06.420Z,85.50
2018-12-05T15:23:35.721Z,85.20
2018-12-05T15:26:05.088Z,85.40
2018-12-05T15:28:34.448Z,85.70
2018-12-05T15:31:05.328Z,86.30
2018-12-05T15:33:34.685Z,86.30
2018-12-05T15:36:04.039Z,86.90
2018-12-05T15:38:33.316Z,86.90
2018-12-05T15:41:02.851Z,87.00
2018-12-05T15:43:32.279Z,87.40
2018-12-05T15:46:04.392Z,86.50
2018-12-05T15:48:33.735Z,86.50
2018-12-05T15:51:03.117Z,85.10
2018-12-05T15:53:32.433Z,83.00
2018-12-05T15:56:01.826Z,84.40
2018-12-05T15:58:34.297Z,83.70
2018-12-05T16:01:03.596Z,84.30
2018-12-05T16:03:34.031Z,87.70
2018-12-05T16:06:03.397Z,88.70
2018-12-05T16:08:32.909Z,89.00
2018-12-05T16:11:02.366Z,89.60
2018-12-05T16:13:32.498Z,89.60
2018-12-05T16:16:01.861Z,87.40
2018-12-05T16:18:31.217Z,88.30
2018-12-05T16:21:00.597Z,90.00
2018-12-05T16:23:29.850Z,90.20
2018-12-05T16:25:59.218Z,90.30
2018-12-05T16:28:28.604Z,90.50
2018-12-05T16:30:57.926Z,90.60
2018-12-05T16:33:27.319Z,90.40
2018-12-05T16:35:56.770Z,90.00
2018-12-05T16:38:27.730Z,89.40
2018-12-05T16:40:57.065Z,85.70
2018-12-05T16:43:26.673Z,86.00
2018-12-05T16:45:56.042Z,85.40
2018-12-05T16:48:25.367Z,86.90
2018-12-05T16:50:54.782Z,88.00
2018-12-05T16:53:24.131Z,89.00
2018-12-05T16:55:53.446Z,90.20
2018-12-05T16:58:22.786Z,90.50
2018-12-05T17:00:52.225Z,90.70
2018-12-05T17:03:21.592Z,88.90
2018-12-05T17:05:50.924Z,86.60
2018-12-05T17:08:20.195Z,85.50
2018-12-05T17:10:49.563Z,86.70
2018-12-05T17:13:18.840Z,87.70
2018-12-05T17:15:48.083Z,87.90
2018-12-05T17:18:17.693Z,87.40
2018-12-05T17:20:46.969Z,87.90
2018-12-05T17:23:16.312Z,89.80
2018-12-05T17:25:45.732Z,89.50
2018-12-05T17:28:15.166Z,88.30
2018-12-05T17:30:44.460Z,87.90
2018-12-05T17:33:13.853Z,88.60
2018-12-05T17:35:43.248Z,86.30
2018-12-05T17:38:12.601Z,85.20
2018-12-05T17:40:41.853Z,86.30
2018-12-05T17:43:11.235Z,84.30
2018-12-05T17:45:40.643Z,83.00
2018-12-05T17:48:09.831Z,82.00
2018-12-05T17:50:39.190Z,81.80
2018-12-05T17:53:10.191Z,81.90
2018-12-05T17:55:39.583Z,83.10
2018-12-05T17:58:08.968Z,86.00
2018-12-05T18:00:38.359Z,90.30
2018-12-05T18:03:07.637Z,90.10
2018-12-05T18:05:36.944Z,86.30
2018-12-05T18:08:09.032Z,84.20
2018-12-05T18:10:38.384Z,83.70
2018-12-05T18:13:07.681Z,83.10
2018-12-05T18:15:37.116Z,82.80
2018-12-05T18:18:07.247Z,82.30
2018-12-05T18:20:36.513Z,82.00
2018-12-05T18:23:05.822Z,81.60
2018-12-05T18:25:35.222Z,82.60
2018-12-05T18:28:04.543Z,82.40
2018-12-05T18:30:36.890Z,82.10
2018-12-05T18:33:06.408Z,87.10
2018-12-05T18:35:35.968Z,90.80
2018-12-05T18:38:05.321Z,92.30
2018-12-05T18:40:34.658Z,92.50
2018-12-05T18:43:04.050Z,93.00
2018-12-05T18:45:33.308Z,93.10
2018-12-05T18:48:02.704Z,93.30
2018-12-05T18:50:32.102Z,93.30
2018-12-05T18:53:01.466Z,93.20
2018-12-05T18:55:30.919Z,93.20
2018-12-05T18:58:00.311Z,93.10
2018-12-05T19:00:30.043Z,93.00
2018-12-05T19:02:59.383Z,93.40
2018-12-05T19:05:28.778Z,93.50
2018-12-05T19:07:58.202Z,93.00
2018-12-05T19:10:29.781Z,93.00
2018-12-05T19:12:59.180Z,92.50
2018-12-05T19:15:28.572Z,92.40
2018-12-05T19:17:59.894Z,92.50
2018-12-05T19:20:29.212Z,93.00
2018-12-05T19:22:58.646Z,93.20
2018-12-05T19:25:30.992Z,93.20
2018-12-05T19:28:00.362Z,93.20
2018-12-05T19:30:29.683Z,93.30
2018-12-05T19:32:59.172Z,93.30
2018-12-05T19:35:28.464Z,93.30
2018-12-05T19:37:57.924Z,93.30
2018-12-05T19:40:28.420Z,93.30
2018-12-05T19:42:57.936Z,93.00
2018-12-05T19:45:27.444Z,92.90
2018-12-05T19:47:57.029Z,93.00
2018-12-05T19:50:26.308Z,92.90
2018-12-05T19:52:55.742Z,92.30
2018-12-05T19:55:25.162Z,91.80
2018-12-05T19:57:54.463Z,90.40
2018-12-05T20:00:23.911Z,88.70
2018-12-05T20:02:53.311Z,86.20
2018-12-05T20:05:22.632Z,85.50
2018-12-05T20:07:52.047Z,84.80
2018-12-05T20:10:21.399Z,84.20
2018-12-05T20:12:50.831Z,84.30
2018-12-05T20:15:20.175Z,83.20
2018-12-05T20:17:49.630Z,83.30
2018-12-05T20:20:19.253Z,83.10
2018-12-05T20:22:48.608Z,82.70
2018-12-05T20:25:18.253Z,82.30
2018-12-05T20:27:47.645Z,82.10
2018-12-05T20:30:16.930Z,82.60
2018-12-05T20:32:46.382Z,82.60
2018-12-05T20:35:15.946Z,84.20
2018-12-05T20:37:45.317Z,83.80
2018-12-05T20:40:14.705Z,83.70
2018-12-05T20:42:44.064Z,83.40
2018-12-05T20:45:13.468Z,82.80
2018-12-05T20:47:42.931Z,82.60
2018-12-05T20:50:12.371Z,81.80
2018-12-05T20:52:41.743Z,81.80
2018-12-05T20:55:11.148Z,81.00
2018-12-05T20:57:40.551Z,81.00
2018-12-05T21:00:10.002Z,81.00
2018-12-05T21:02:41.285Z,80.80
2018-12-05T21:05:10.700Z,81.30
2018-12-05T21:07:40.444Z,81.20
2018-12-05T21:10:09.784Z,80.40
2018-12-05T21:12:39.143Z,80.40
2018-12-05T21:15:08.939Z,80.50
2018-12-05T21:17:38.295Z,80.10
2018-12-05T21:20:07.704Z,79.80
2018-12-05T21:22:37.124Z,79.60
2018-12-05T21:25:06.460Z,80.10
2018-12-05T21:27:35.965Z,80.30
2018-12-05T21:30:06.577Z,80.90
2018-12-05T21:32:35.899Z,81.80
2018-12-05T21:35:08.638Z,82.80
2018-12-05T21:37:37.919Z,83.30
2018-12-05T21:40:07.303Z,83.70
2018-12-05T21:42:36.724Z,82.50
2018-12-05T21:45:06.292Z,81.40
2018-12-05T21:47:35.585Z,81.00
2018-12-05T21:50:05.346Z,81.10
2018-12-05T21:52:34.733Z,81.00
2018-12-05T21:55:04.652Z,81.30
2018-12-05T21:57:34.121Z,80.80
2018-12-05T22:00:04.141Z,80.30
2018-12-05T22:02:38.416Z,80.80
2018-12-05T22:05:07.805Z,81.70
2018-12-05T22:07:37.190Z,83.00
2018-12-05T22:10:08.525Z,82.00
2018-12-05T22:12:38.084Z,80.80
2018-12-05T22:15:07.621Z,80.20
2018-12-05T22:17:37.542Z,79.80
2018-12-05T22:20:11.030Z,79.70
2018-12-05T22:22:40.416Z,80.20
2018-12-05T22:25:09.845Z,80.10
2018-12-05T22:27:39.286Z,80.20
2018-12-05T22:30:09.385Z,80.90
2018-12-05T22:32:38.656Z,80.50
2018-12-05T22:35:07.970Z,80.50
2018-12-05T22:37:37.385Z,81.00
2018-12-05T22:40:07.826Z,80.70
2018-12-05T22:42:37.178Z,81.00
2018-12-05T22:45:06.673Z,82.50
2018-12-05T22:47:36.060Z,82.20
2018-12-05T22:50:06.036Z,81.20
2018-12-05T22:52:35.477Z,80.30
2018-12-05T22:55:05.057Z,79.80
2018-12-05T22:57:34.410Z,79.90
2018-12-05T23:00:05.425Z,79.40
2018-12-05T23:02:36.669Z,79.40
2018-12-05T23:05:06.494Z,79.60
2018-12-05T23:07:36.349Z,79.50
2018-12-05T23:10:05.924Z,80.00
2018-12-05T23:12:35.281Z,80.50
2018-12-05T23:15:04.964Z,80.30
2018-12-05T23:17:34.302Z,80.70
2018-12-05T23:20:03.930Z,80.90
2018-12-05T23:22:33.241Z,80.90
2018-12-05T23:25:02.597Z,80.60
2018-12-05T23:27:31.932Z,79.90
2018-12-05T23:30:01.396Z,79.40
2018-12-05T23:32:31.007Z,82.00
2018-12-05T23:35:00.442Z,83.60
2018-12-05T23:37:29.818Z,83.60
2018-12-05T23:39:59.297Z,83.40
2018-12-05T23:42:28.636Z,81.30
2018-12-05T23:44:57.999Z,80.40
2018-12-05T23:47:27.466Z,81.00
2018-12-05T23:49:56.846Z,79.90
2018-12-05T23:52:26.277Z,79.90
2018-12-05T23:54:55.922Z,79.70
2018-12-05T23:57:25.291Z,78.90
2018-12-05T23:59:54.670Z,79.50
